Time;durP1;ratioP1;P1;durP2;ratioP2;P2;SDS_P1;SDS_P2;PMS_P1;PMS_P2;Temp;Humidity;BMP_temperature;BMP_pressure;BME280_temperature;BME280_humidity;BME280_pressure;Samples;Min_cycle;Max_cycle;Signal;HPM_P1;HPM_P2
2023/08/09 00:02:17;;;;;;;7.65;4.68;;;;;;;14.77;100.00;100888.03;5004222;28;20046;-69
2023/08/09 00:04:42;;;;;;;10.57;4.00;;;;;;;14.75;100.00;100889.22;5001594;28;20178;-68
2023/08/09 00:07:07;;;;;;;7.38;4.25;;;;;;;14.82;100.00;100889.28;5003913;28;20046;-69
2023/08/09 00:09:33;;;;;;;11.00;4.07;;;;;;;14.74;100.00;100896.22;5002097;28;20038;-69
2023/08/09 00:11:58;;;;;;;9.82;4.18;;;;;;;14.70;100.00;100902.00;4999130;28;20038;-69
2023/08/09 00:14:24;;;;;;;8.13;3.92;;;;;;;14.76;100.00;100903.88;4997561;28;21926;-69
2023/08/09 00:16:49;;;;;;;12.18;4.07;;;;;;;14.76;100.00;100899.47;4995422;28;20042;-69
2023/08/09 00:19:15;;;;;;;7.20;3.97;;;;;;;14.72;100.00;100900.81;4996499;28;20034;-69
2023/08/09 00:21:40;;;;;;;7.38;3.38;;;;;;;14.71;100.00;100901.00;4996024;28;20046;-70
2023/08/09 00:24:06;;;;;;;8.15;4.35;;;;;;;14.65;100.00;100905.13;4999771;28;20115;-69
2023/08/09 00:26:31;;;;;;;6.25;3.85;;;;;;;14.66;100.00;100919.81;4994313;28;20050;-69
2023/08/09 00:28:56;;;;;;;8.50;4.65;;;;;;;14.64;100.00;100931.44;4998083;28;20041;-69
2023/08/09 00:31:23;;;;;;;6.55;3.20;;;;;;;14.67;100.00;100937.06;4994802;28;20058;-70
2023/08/09 00:33:48;;;;;;;3.17;2.10;;;;;;;14.44;100.00;100931.91;4998037;28;20401;-71
2023/08/09 00:36:15;;;;;;;3.38;1.88;;;;;;;14.34;100.00;100936.59;4997117;28;20046;-70
2023/08/09 00:38:41;;;;;;;3.95;1.90;;;;;;;14.37;100.00;100941.44;4997855;28;20111;-70
2023/08/09 00:41:07;;;;;;;3.15;1.50;;;;;;;14.33;100.00;100940.97;4994103;28;20030;-70
2023/08/09 00:43:32;;;;;;;1.92;1.30;;;;;;;14.27;100.00;100939.06;4996187;28;20042;-69
2023/08/09 00:45:58;;;;;;;2.33;1.02;;;;;;;14.23;100.00;100934.41;4999113;28;20042;-69
2023/08/09 00:48:24;;;;;;;2.13;1.90;;;;;;;14.21;100.00;100950.22;4998934;28;20041;-69
2023/08/09 00:50:50;;;;;;;1.48;1.13;;;;;;;14.19;100.00;100946.97;5001924;28;20030;-69
2023/08/09 00:53:16;;;;;;;2.72;1.15;;;;;;;14.08;100.00;100955.22;4998135;28;20404;-70
2023/08/09 00:55:41;;;;;;;1.60;1.48;;;;;;;14.12;100.00;100948.66;4997881;28;21935;-70
2023/08/09 00:58:07;;;;;;;2.30;1.45;;;;;;;14.06;100.00;100958.00;4999437;28;20062;-69
2023/08/09 01:00:32;;;;;;;4.80;1.98;;;;;;;14.09;100.00;100957.66;4995333;28;20042;-69
2023/08/09 01:02:59;;;;;;;2.38;1.70;;;;;;;14.10;100.00;100958.47;5000379;28;20030;-69
2023/08/09 01:05:32;;;;;;;2.35;1.60;;;;;;;14.05;100.00;100977.22;4999357;28;20046;-69
2023/08/09 01:08:37;;;;;;;3.40;1.63;;;;;;;14.03;100.00;100981.78;5002460;28;20101;-69
2023/08/09 01:11:23;;;;;;;6.18;1.55;;;;;;;14.05;100.00;100986.84;4999700;28;20042;-69
2023/08/09 01:13:52;;;;;;;1.77;1.40;;;;;;;14.06;100.00;100986.69;4999819;28;20172;-69
2023/08/09 01:16:20;;;;;;;1.85;1.35;;;;;;;14.08;100.00;100982.09;5000771;28;20038;-69
2023/08/09 01:18:48;;;;;;;8.70;2.72;;;;;;;14.09;100.00;100973.28;4999313;28;20115;-70
2023/08/09 01:21:17;;;;;;;4.95;1.67;;;;;;;14.08;100.00;100973.47;4997752;28;20068;-69
2023/08/09 01:23:44;;;;;;;2.08;1.38;;;;;;;14.09;100.00;100965.47;5001201;28;20041;-69
2023/08/09 01:26:11;;;;;;;1.73;1.50;;;;;;;14.11;100.00;100975.72;5007484;28;20029;-69
2023/08/09 01:28:36;;;;;;;2.45;1.80;;;;;;;14.10;100.00;100972.28;5025830;28;20026;-69
2023/08/09 01:31:03;;;;;;;3.35;1.83;;;;;;;14.13;100.00;100976.38;5021726;28;20064;-69
2023/08/09 01:33:29;;;;;;;4.47;1.52;;;;;;;14.12;100.00;100980.75;5023738;28;20064;-69
2023/08/09 01:36:00;;;;;;;2.72;1.77;;;;;;;14.14;100.00;100983.19;5020152;28;20037;-69
2023/08/09 01:38:53;;;;;;;2.58;1.95;;;;;;;14.10;100.00;100979.31;5023576;28;20441;-69
2023/08/09 01:41:20;;;;;;;2.00;1.45;;;;;;;14.09;100.00;100969.84;5021624;28;20049;-69
2023/08/09 01:43:47;;;;;;;2.60;2.00;;;;;;;14.08;100.00;100971.66;5019767;28;20037;-69
2023/08/09 01:46:13;;;;;;;2.83;1.75;;;;;;;14.08;100.00;100976.06;5019981;28;20519;-69
2023/08/09 01:48:39;;;;;;;2.35;1.70;;;;;;;14.07;100.00;100970.06;5018117;28;20044;-69
2023/08/09 01:51:04;;;;;;;3.90;1.67;;;;;;;14.03;100.00;100966.16;5014790;28;20033;-69
2023/08/09 01:53:30;;;;;;;2.05;1.60;;;;;;;14.02;100.00;100967.16;5001505;28;20489;-69
2023/08/09 01:55:55;;;;;;;1.60;1.35;;;;;;;14.00;100.00;100971.72;4996169;28;20428;-69
2023/08/09 01:58:21;;;;;;;1.45;1.10;;;;;;;14.01;100.00;100978.56;5007084;28;20030;-69
2023/08/09 02:00:46;;;;;;;3.65;1.38;;;;;;;14.03;100.00;100976.59;5000279;28;20042;-69
2023/08/09 02:03:12;;;;;;;2.72;1.50;;;;;;;14.01;100.00;100979.38;5004628;28;20097;-69
2023/08/09 02:05:38;;;;;;;2.50;1.50;;;;;;;14.03;100.00;100984.41;5003418;28;20045;-69
2023/08/09 02:08:05;;;;;;;3.25;1.40;;;;;;;14.06;100.00;100986.69;5017147;28;20715;-69
2023/08/09 02:10:31;;;;;;;1.65;1.42;;;;;;;14.08;100.00;100982.09;5001776;28;20042;-69
2023/08/09 02:12:57;;;;;;;2.08;1.52;;;;;;;14.08;100.00;100987.31;5003807;28;20071;-69
2023/08/09 02:15:22;;;;;;;1.90;1.67;;;;;;;14.09;100.00;100990.72;4999090;28;20037;-69
2023/08/09 02:17:49;;;;;;;2.85;1.25;;;;;;;14.11;100.00;100991.34;5001948;28;20022;-69
2023/08/09 02:20:14;;;;;;;2.20;1.48;;;;;;;14.11;100.00;100994.78;4994645;28;20062;-69
2023/08/09 02:22:41;;;;;;;2.55;1.45;;;;;;;14.11;100.00;100996.56;5004342;28;20120;-69
2023/08/09 02:25:08;;;;;;;2.10;1.33;;;;;;;14.10;100.00;100992.34;5002166;28;20026;-69
2023/08/09 02:27:34;;;;;;;2.75;1.60;;;;;;;14.07;100.00;100996.13;5002686;28;20121;-69
2023/08/09 02:30:03;;;;;;;3.17;1.70;;;;;;;14.06;100.00;101004.13;5004925;28;20059;-69
2023/08/09 02:32:30;;;;;;;3.50;1.50;;;;;;;14.05;100.00;101005.91;5004673;28;20576;-69
2023/08/09 02:34:56;;;;;;;2.83;1.80;;;;;;;14.02;100.00;101008.88;5001335;28;20788;-69
2023/08/09 02:37:22;;;;;;;2.70;1.73;;;;;;;14.02;100.00;101001.03;5019957;28;20041;-69
2023/08/09 02:39:47;;;;;;;5.88;1.70;;;;;;;14.01;100.00;101000.25;5026269;28;20075;-69
2023/08/09 02:42:13;;;;;;;3.50;1.90;;;;;;;14.03;100.00;101010.47;5005479;28;20033;-69
2023/08/09 02:44:38;;;;;;;3.17;1.92;;;;;;;14.04;100.00;101004.28;5004381;28;20053;-69
2023/08/09 02:47:05;;;;;;;2.50;1.73;;;;;;;14.05;100.00;101003.28;5003811;28;20527;-69
2023/08/09 02:49:31;;;;;;;2.50;1.90;;;;;;;14.02;100.00;101009.66;4998909;28;20558;-69
2023/08/09 02:51:57;;;;;;;3.38;1.60;;;;;;;14.04;100.00;101019.94;5001223;28;20047;-69
2023/08/09 02:54:22;;;;;;;3.45;2.08;;;;;;;14.03;100.00;101020.91;4999940;28;20042;-69
2023/08/09 02:56:48;;;;;;;3.20;1.67;;;;;;;14.02;100.00;101027.13;5002027;28;20041;-69
2023/08/09 02:59:13;;;;;;;3.40;1.50;;;;;;;14.01;100.00;101028.09;4999446;28;20087;-69
2023/08/09 03:01:39;;;;;;;2.67;1.58;;;;;;;14.01;100.00;101023.72;5000012;28;20034;-69
2023/08/09 03:04:04;;;;;;;3.45;2.00;;;;;;;13.99;100.00;101019.63;4999260;28;20041;-69
2023/08/09 03:06:30;;;;;;;2.78;1.92;;;;;;;13.99;100.00;101024.84;5001878;28;20053;-69
2023/08/09 03:08:56;;;;;;;2.17;1.65;;;;;;;14.00;100.00;101029.88;5000960;28;20157;-69
2023/08/09 03:11:24;;;;;;;2.50;1.92;;;;;;;14.00;100.00;101042.94;4999162;28;20072;-69
2023/08/09 03:13:50;;;;;;;3.40;1.83;;;;;;;14.00;100.00;101036.91;5002039;28;20468;-69
2023/08/09 03:16:17;;;;;;;4.65;1.90;;;;;;;14.01;100.00;101036.75;5008386;28;20092;-69
2023/08/09 03:18:42;;;;;;;2.85;1.80;;;;;;;14.00;100.00;101031.69;5025362;28;20634;-69
2023/08/09 03:21:08;;;;;;;4.32;2.22;;;;;;;14.00;100.00;101029.09;5020564;28;20040;-70
2023/08/09 03:23:35;;;;;;;2.63;1.88;;;;;;;14.00;100.00;101027.28;5021325;28;20033;-70
2023/08/09 03:26:02;;;;;;;3.25;1.58;;;;;;;14.00;100.00;101024.69;5014488;28;20080;-69
2023/08/09 03:28:28;;;;;;;4.25;1.90;;;;;;;14.00;100.00;101034.31;5021499;28;20488;-69
2023/08/09 03:30:54;;;;;;;2.47;1.60;;;;;;;14.00;100.00;101039.50;5021265;28;20029;-69
2023/08/09 03:33:20;;;;;;;3.95;2.10;;;;;;;14.00;100.00;101044.72;5018875;28;20120;-70
2023/08/09 03:35:45;;;;;;;4.63;2.05;;;;;;;13.99;100.00;101038.72;5017293;28;20607;-69
2023/08/09 03:38:11;;;;;;;2.53;1.92;;;;;;;13.95;100.00;101045.22;5018161;28;20241;-69
2023/08/09 03:40:36;;;;;;;3.97;2.10;;;;;;;13.94;100.00;101054.06;5018029;28;20044;-69
2023/08/09 03:43:03;;;;;;;4.05;1.70;;;;;;;13.93;100.00;101049.81;5016835;28;20689;-69
2023/08/09 03:45:28;;;;;;;6.03;1.92;;;;;;;13.93;100.00;101054.22;5021921;28;20041;-69
2023/08/09 03:47:55;;;;;;;3.03;1.52;;;;;;;13.92;100.00;101053.41;5019140;28;20040;-69
2023/08/09 03:50:23;;;;;;;3.30;1.88;;;;;;;13.91;100.00;101051.78;5017751;28;20084;-69
2023/08/09 03:52:48;;;;;;;3.40;1.70;;;;;;;13.90;100.00;101058.00;5017723;28;20123;-69
2023/08/09 03:55:14;;;;;;;4.10;1.90;;;;;;;13.88;100.00;101059.13;5020237;28;20040;-69
2023/08/09 03:57:41;;;;;;;3.83;2.03;;;;;;;13.85;100.00;101060.28;5026658;28;20153;-70
2023/08/09 04:00:09;;;;;;;2.58;2.20;;;;;;;13.83;100.00;101065.66;5015965;28;20040;-69
2023/08/09 04:02:47;;;;;;;3.10;2.00;;;;;;;13.82;100.00;101079.69;5019405;28;20050;-69
2023/08/09 04:05:14;;;;;;;3.50;2.08;;;;;;;13.81;100.00;101080.66;5022721;28;20028;-69
2023/08/09 04:07:42;;;;;;;3.10;2.30;;;;;;;13.81;100.00;101075.44;5021289;28;20535;-69
2023/08/09 04:10:08;;;;;;;3.67;2.58;;;;;;;13.81;100.00;101080.66;5016298;28;20041;-69
2023/08/09 04:12:35;;;;;;;3.05;2.00;;;;;;;13.80;100.00;101086.03;5022424;28;20045;-69
2023/08/09 04:15:02;;;;;;;2.63;1.90;;;;;;;13.80;100.00;101088.66;5017488;28;20076;-69
2023/08/09 04:17:28;;;;;;;6.63;2.47;;;;;;;13.78;100.00;101091.41;5025038;28;20577;-69
2023/08/09 04:19:54;;;;;;;2.35;1.90;;;;;;;13.76;100.00;101090.78;5022911;28;20029;-69
2023/08/09 04:22:19;;;;;;;6.13;2.03;;;;;;;13.76;100.00;101097.78;5019830;28;20049;-69
2023/08/09 04:24:44;;;;;;;3.72;2.10;;;;;;;13.75;100.00;101098.75;5020937;28;20040;-69
2023/08/09 04:27:11;;;;;;;7.10;2.95;;;;;;;13.73;100.00;101101.56;5022634;28;20658;-69
2023/08/09 04:29:37;;;;;;;5.10;2.72;;;;;;;13.70;100.00;101109.72;5018158;28;20041;-69
2023/08/09 04:32:02;;;;;;;3.97;1.92;;;;;;;13.67;100.00;101104.81;5018975;28;20114;-69
2023/08/09 04:34:29;;;;;;;3.70;2.20;;;;;;;13.66;100.00;101113.63;5016981;28;20033;-69
2023/08/09 04:36:54;;;;;;;3.80;2.40;;;;;;;13.63;100.00;101114.75;5016746;28;20072;-69
2023/08/09 04:39:19;;;;;;;3.40;2.25;;;;;;;13.63;100.00;101111.34;5022963;28;20057;-69
2023/08/09 04:41:45;;;;;;;5.32;2.83;;;;;;;13.61;100.00;101115.94;5018970;28;20037;-69
2023/08/09 04:44:10;;;;;;;6.47;2.60;;;;;;;13.59;100.00;101116.09;5022436;28;20630;-69
2023/08/09 04:46:36;;;;;;;3.75;2.65;;;;;;;13.57;100.00;101123.25;5019594;28;20399;-69
2023/08/09 04:49:03;;;;;;;6.45;2.80;;;;;;;13.58;100.00;101127.50;5021566;28;20053;-70
2023/08/09 04:51:29;;;;;;;10.95;3.42;;;;;;;13.56;100.00;101126.88;5020278;28;20037;-69
2023/08/09 04:53:55;;;;;;;6.22;3.92;;;;;;;13.55;100.00;101127.03;5017824;28;20103;-69
2023/08/09 04:56:21;;;;;;;5.68;3.40;;;;;;;13.57;100.00;101125.06;5021490;28;20396;-69
2023/08/09 04:58:46;;;;;;;5.40;3.70;;;;;;;13.58;100.00;101131.88;5023110;28;20052;-69
2023/08/09 05:01:12;;;;;;;7.68;4.22;;;;;;;13.57;100.00;101136.28;5019512;28;20044;-69
2023/08/09 05:03:37;;;;;;;6.10;4.07;;;;;;;13.58;100.00;101139.69;5020665;28;20033;-69
2023/08/09 05:06:03;;;;;;;7.60;4.18;;;;;;;13.58;100.00;101142.31;5019546;28;20496;-68
2023/08/09 05:08:28;;;;;;;6.03;4.40;;;;;;;13.55;100.00;101140.84;5022851;28;20084;-69
2023/08/09 05:10:54;;;;;;;8.73;5.18;;;;;;;13.56;100.00;101145.09;5018567;28;20037;-70
2023/08/09 05:13:19;;;;;;;7.00;4.55;;;;;;;13.56;100.00;101141.66;5020631;28;21527;-69
2023/08/09 05:15:45;;;;;;;8.82;4.70;;;;;;;13.56;100.00;101149.47;5019854;28;20053;-69
2023/08/09 05:18:10;;;;;;;6.63;4.38;;;;;;;13.57;100.00;101156.31;5018913;28;20056;-69
2023/08/09 05:20:37;;;;;;;5.38;3.92;;;;;;;13.59;100.00;101151.75;5021006;28;20076;-69
2023/08/09 05:23:03;;;;;;;9.30;4.28;;;;;;;13.62;100.00;101157.44;5021740;28;20121;-69
2023/08/09 05:25:29;;;;;;;6.00;4.32;;;;;;;13.65;100.00;101151.09;5022321;28;20134;-69
2023/08/09 05:27:55;;;;;;;5.35;4.13;;;;;;;13.67;100.00;101162.16;5018507;28;20484;-69
2023/08/09 05:30:22;;;;;;;8.02;3.92;;;;;;;13.69;100.00;101157.56;5021987;28;20124;-69
2023/08/09 05:32:48;;;;;;;7.85;4.32;;;;;;;13.72;100.00;101154.66;5022299;28;20087;-69
2023/08/09 05:35:13;;;;;;;5.90;4.30;;;;;;;13.75;100.00;101156.09;5019551;28;20436;-69
2023/08/09 05:37:39;;;;;;;5.88;4.55;;;;;;;13.78;100.00;101164.41;5016569;28;20034;-69
2023/08/09 05:40:13;;;;;;;6.95;4.57;;;;;;;13.83;100.00;101174.34;5021539;28;20052;-69
2023/08/09 05:42:40;;;;;;;9.65;4.88;;;;;;;13.88;100.00;101174.66;5022399;28;20037;-69
2023/08/09 05:45:06;;;;;;;7.55;4.65;;;;;;;13.92;100.00;101175.09;5017860;28;20103;-68
2023/08/09 05:47:32;;;;;;;6.35;4.28;;;;;;;13.94;100.00;101170.56;5023889;28;20049;-69
2023/08/09 05:49:58;;;;;;;6.78;4.35;;;;;;;13.97;100.00;101175.41;5022108;28;20718;-69
2023/08/09 05:52:23;;;;;;;7.93;5.43;;;;;;;13.96;100.00;101176.41;5018932;28;20039;-69
2023/08/09 05:54:49;;;;;;;6.85;4.18;;;;;;;13.97;100.00;101178.03;5021447;28;20034;-69
2023/08/09 05:57:14;;;;;;;9.40;4.45;;;;;;;14.00;100.00;101193.34;5020011;28;21758;-69
2023/08/09 05:59:39;;;;;;;5.60;4.25;;;;;;;14.00;100.00;101185.50;5020830;28;20094;-69
2023/08/09 06:02:06;;;;;;;6.25;4.13;;;;;;;14.05;100.00;101190.22;5017323;28;20038;-69
2023/08/09 06:04:33;;;;;;;6.82;4.70;;;;;;;14.08;100.00;101195.91;5022451;28;20087;-68
2023/08/09 06:06:59;;;;;;;9.45;4.88;;;;;;;14.13;100.00;101201.44;5019013;28;20040;-69
2023/08/09 06:13:11;;;;;;;6.72;4.43;;;;;;;14.24;100.00;101213.28;4997265;28;20048;-69
2023/08/09 06:15:37;;;;;;;6.53;5.30;;;;;;;14.25;100.00;101212.28;4999557;28;20038;-69
2023/08/09 06:18:02;;;;;;;6.50;4.47;;;;;;;14.21;100.00;101211.00;5000850;28;20601;-69
2023/08/09 06:20:28;;;;;;;5.95;4.78;;;;;;;14.22;100.00;101220.44;5000955;28;20658;-68
2023/08/09 06:22:53;;;;;;;7.88;4.85;;;;;;;14.23;100.00;101216.88;5002660;28;20045;-68
2023/08/09 06:25:19;;;;;;;6.80;4.95;;;;;;;14.18;100.00;101225.22;5002698;28;20042;-69
2023/08/09 06:27:44;;;;;;;7.60;4.70;;;;;;;14.17;100.00;101222.78;4998447;28;20042;-68
2023/08/09 06:30:11;;;;;;;6.57;5.50;;;;;;;14.19;100.00;101223.41;4997494;28;20408;-68
2023/08/09 06:32:37;;;;;;;17.45;9.90;;;;;;;14.20;100.00;101223.25;4996040;28;20043;-68
2023/08/09 06:35:04;;;;;;;19.25;10.98;;;;;;;14.24;100.00;101222.88;4998436;28;20400;-69
2023/08/09 06:37:30;;;;;;;8.63;5.20;;;;;;;14.18;100.00;101222.59;5022089;28;20050;-68
2023/08/09 06:39:55;;;;;;;7.00;4.90;;;;;;;14.18;100.00;101225.22;5018184;28;20743;-68
2023/08/09 06:42:20;;;;;;;6.28;4.68;;;;;;;14.28;100.00;101221.56;5023961;28;20053;-68
2023/08/09 06:44:50;;;;;;;7.97;4.63;;;;;;;14.40;100.00;101231.44;5019730;28;20148;-68
2023/08/09 06:47:15;;;;;;;6.75;4.70;;;;;;;14.49;100.00;101227.00;5018996;28;20440;-68
2023/08/09 06:49:40;;;;;;;6.00;4.57;;;;;;;14.58;100.00;101227.81;5020843;28;20044;-68
2023/08/09 06:52:06;;;;;;;8.82;5.72;;;;;;;14.65;100.00;101246.19;5021633;28;20038;-68
2023/08/09 06:54:32;;;;;;;9.98;5.72;;;;;;;14.70;100.00;101246.50;5019935;28;20424;-68
2023/08/09 06:56:57;;;;;;;7.20;5.30;;;;;;;14.71;100.00;101248.13;5021956;28;20173;-67
2023/08/09 06:59:22;;;;;;;4.78;3.40;;;;;;;14.72;100.00;101253.16;5021455;28;20037;-68
2023/08/09 07:01:48;;;;;;;7.35;5.03;;;;;;;14.75;100.00;101250.22;5020589;28;20041;-68
2023/08/09 07:04:15;;;;;;;7.78;5.15;;;;;;;14.79;100.00;101261.94;5021991;28;20480;-68
2023/08/09 07:06:41;;;;;;;7.80;5.45;;;;;;;14.86;100.00;101266.47;5018160;28;20072;-68
2023/08/09 07:09:06;;;;;;;7.28;4.78;;;;;;;14.90;100.00;101268.56;5020413;28;20037;-67
2023/08/09 07:11:32;;;;;;;9.05;5.15;;;;;;;14.91;100.00;101266.78;5017865;28;20048;-68
2023/08/09 07:13:58;;;;;;;8.30;4.38;;;;;;;14.98;100.00;101270.31;5021214;28;20120;-68
2023/08/09 07:16:24;;;;;;;7.20;4.82;;;;;;;15.12;100.00;101268.75;5017998;28;20033;-69
2023/08/09 07:18:49;;;;;;;7.13;5.03;;;;;;;15.18;100.00;101265.44;5017578;28;20501;-68
2023/08/09 07:21:15;;;;;;;6.60;4.20;;;;;;;15.20;100.00;101268.72;5021358;28;20095;-68
2023/08/09 07:23:40;;;;;;;6.35;4.72;;;;;;;15.38;100.00;101271.81;5015587;28;20040;-69
2023/08/09 07:26:06;;;;;;;7.82;4.40;;;;;;;15.76;100.00;101266.63;5018197;28;20037;-68
2023/08/09 07:28:31;;;;;;;8.50;4.28;;;;;;;15.81;100.00;101273.09;5017655;28;20052;-68
2023/08/09 07:30:57;;;;;;;6.82;4.50;;;;;;;15.87;100.00;101281.03;5017381;28;20038;-69
2023/08/09 07:33:23;;;;;;;6.57;4.50;;;;;;;15.80;100.00;101282.72;5015438;28;20052;-68
2023/08/09 07:35:49;;;;;;;10.32;5.47;;;;;;;15.75;100.00;101283.28;5011500;28;20053;-68
2023/08/09 07:38:15;;;;;;;9.75;5.45;;;;;;;15.84;100.00;101286.63;5001255;28;20040;-68
2023/08/09 07:40:41;;;;;;;7.07;4.78;;;;;;;15.95;100.00;101290.59;4999697;28;20093;-68
2023/08/09 07:43:06;;;;;;;11.73;5.25;;;;;;;15.90;100.00;101291.13;5003330;28;20699;-69
2023/08/09 07:45:32;;;;;;;7.53;4.65;;;;;;;15.89;100.00;101297.34;5002509;28;20053;-68
2023/08/09 07:47:57;;;;;;;7.53;4.63;;;;;;;15.90;100.00;101298.97;5001463;28;20080;-69
2023/08/09 07:50:23;;;;;;;9.70;4.85;;;;;;;15.84;100.00;101304.09;5001991;28;20048;-69
2023/08/09 07:52:48;;;;;;;6.88;4.22;;;;;;;15.87;100.00;101301.94;5002378;28;20503;-69
2023/08/09 07:55:14;;;;;;;12.30;5.75;;;;;;;16.58;100.00;101308.53;4999239;28;20038;-69
2023/08/09 07:57:40;;;;;;;7.05;4.95;;;;;;;17.62;100.00;101301.09;5004730;28;20164;-69
2023/08/09 08:00:14;;;;;;;9.65;5.45;;;;;;;18.20;90.56;101300.09;5000700;28;20096;-69
2023/08/09 08:02:41;;;;;;;12.10;5.07;;;;;;;18.80;86.04;101290.66;4999932;28;20088;-69
2023/08/09 08:05:08;;;;;;;10.65;5.22;;;;;;;19.26;83.93;101296.97;4999707;28;20056;-70
2023/08/09 08:07:33;;;;;;;9.55;5.22;;;;;;;19.17;80.64;101296.34;5000280;28;20136;-70
2023/08/09 08:09:59;;;;;;;8.77;5.50;;;;;;;19.22;77.85;101309.72;5003642;28;20117;-70
2023/08/09 08:12:26;;;;;;;6.63;4.38;;;;;;;19.33;79.85;101313.56;5024501;28;20097;-71
2023/08/09 08:14:52;;;;;;;9.88;4.97;;;;;;;19.58;79.19;101311.13;5019858;28;20554;-70
2023/08/09 08:17:18;;;;;;;12.52;4.68;;;;;;;19.93;77.11;101310.09;5014322;28;20037;-69
2023/08/09 08:19:43;;;;;;;11.85;4.50;;;;;;;20.22;77.68;101311.47;5019311;28;20045;-69
2023/08/09 08:22:09;;;;;;;7.65;4.63;;;;;;;20.34;76.27;101309.81;5006438;28;20125;-71
2023/08/09 08:24:34;;;;;;;9.70;5.30;;;;;;;20.08;74.95;101315.13;5005298;28;20108;-69
2023/08/09 08:27:00;;;;;;;6.85;4.57;;;;;;;20.19;75.08;101303.97;5018965;28;20496;-70
2023/08/09 08:29:25;;;;;;;7.38;4.15;;;;;;;20.71;76.08;101309.28;5020306;28;20041;-71
2023/08/09 08:31:51;;;;;;;6.47;4.07;;;;;;;21.12;74.32;101308.00;5008628;28;20562;-71
2023/08/09 08:34:18;;;;;;;6.88;3.80;;;;;;;21.42;71.52;101307.34;5000498;28;20022;-70
2023/08/09 08:36:44;;;;;;;7.57;3.47;;;;;;;21.87;70.48;101304.53;5003251;28;20042;-71
2023/08/09 08:39:14;;;;;;;9.00;2.97;;;;;;;21.89;68.80;101302.50;4998220;28;20053;-70
2023/08/09 08:41:41;;;;;;;4.72;2.75;;;;;;;21.95;69.76;101315.63;5004181;28;20045;-71
2023/08/09 08:44:07;;;;;;;6.88;3.63;;;;;;;22.23;69.40;101305.59;5000313;28;20025;-70
2023/08/09 08:46:33;;;;;;;10.80;3.80;;;;;;;22.44;66.93;101313.06;5002411;28;20037;-70
2023/08/09 08:49:00;;;;;;;9.77;4.13;;;;;;;;;;5000188;28;20408;-69
2023/08/09 08:51:28;;;;;;;7.60;3.28;;;;;;;22.03;64.65;101321.66;5002339;28;20046;-71
2023/08/09 08:53:53;;;;;;;4.95;2.75;;;;;;;21.97;66.78;101324.13;5003438;28;20439;-71
2023/08/09 08:56:19;;;;;;;5.22;2.13;;;;;;;22.14;68.46;101328.84;5006964;28;20042;-72
2023/08/09 08:58:45;;;;;;;8.20;2.75;;;;;;;22.45;69.63;101321.78;5003305;28;20451;-72
2023/08/09 09:01:11;;;;;;;5.43;2.50;;;;;;;22.01;68.58;101321.84;5004052;28;20593;-71
2023/08/09 09:03:37;;;;;;;4.65;2.33;;;;;;;21.88;71.07;101333.34;5005687;28;20704;-72
2023/08/09 09:06:02;;;;;;;5.40;2.20;;;;;;;22.06;69.67;101324.66;5003693;28;20038;-71
2023/08/09 09:08:28;;;;;;;6.00;2.90;;;;;;;21.64;68.61;101339.47;5003482;28;20468;-72
2023/08/09 09:10:54;;;;;;;6.35;2.38;;;;;;;21.37;71.45;101337.81;5000633;28;20520;-72
2023/08/09 09:13:27;;;;;;;5.00;2.35;;;;;;;21.61;72.13;101340.72;4999929;28;20602;-72
2023/08/09 09:15:54;;;;;;;3.42;2.67;;;;;;;21.93;62.56;101335.34;5003019;28;20042;-71
2023/08/09 09:18:21;;;;;;;6.57;1.80;;;;;;;21.76;66.14;101343.81;4998415;28;20041;-71
2023/08/09 09:20:47;;;;;;;5.80;2.20;;;;;;;22.00;64.91;101338.75;4992851;28;20033;-70
2023/08/09 09:23:27;;;;;;;6.45;2.53;;;;;;;22.05;62.89;101335.44;4984215;28;20042;-70
2023/08/09 09:26:21;;;;;;;7.20;2.60;;;;;;;22.19;65.03;101347.47;4988094;28;20042;-70
2023/08/09 09:28:47;;;;;;;4.30;2.67;;;;;;;22.37;67.05;101351.16;5002088;28;20049;-72
2023/08/09 09:31:14;;;;;;;7.25;2.40;;;;;;;22.70;66.13;101342.84;5002476;28;20088;-72
2023/08/09 09:33:45;;;;;;;3.00;1.63;;;;;;;22.49;64.53;101349.38;4996861;28;20484;-70
2023/08/09 09:36:11;;;;;;;3.15;1.60;;;;;;;22.86;63.63;101336.91;4995329;28;20117;-70
2023/08/09 09:38:37;;;;;;;2.42;1.63;;;;;;;23.03;60.31;101336.25;4996177;28;20041;-72
2023/08/09 09:41:03;;;;;;;7.07;1.60;;;;;;;22.80;62.74;101342.28;4995133;28;20046;-71
2023/08/09 09:43:32;;;;;;;3.10;1.48;;;;;;;23.22;59.44;101337.81;4996956;28;20038;-71
2023/08/09 09:45:57;;;;;;;2.92;1.30;;;;;;;23.47;55.72;101337.66;5002704;28;20045;-70
2023/08/09 09:48:23;;;;;;;2.17;1.20;;;;;;;23.51;54.96;101341.44;5000103;28;20042;-71
2023/08/09 09:50:49;;;;;;;2.33;1.70;;;;;;;23.17;55.77;101343.00;5004383;28;20045;-72
2023/08/09 09:53:19;;;;;;;4.82;1.35;;;;;;;23.34;55.48;101340.50;5001083;28;20095;-72
2023/08/09 09:55:46;;;;;;;3.05;1.48;;;;;;;23.60;54.93;101341.09;5000332;28;20042;-71
2023/08/09 09:58:16;;;;;;;5.25;1.00;;;;;;;23.67;55.24;101339.94;5001613;28;20034;-71
2023/08/09 10:00:49;;;;;;;6.55;1.60;;;;;;;23.78;56.36;101345.47;4998125;28;20049;-72
2023/08/09 10:03:17;;;;;;;4.18;1.13;;;;;;;23.96;56.81;101342.75;5017612;28;20041;-71
2023/08/09 10:05:45;;;;;;;3.00;1.15;;;;;;;23.89;57.28;101356.09;5012081;28;20046;-72
2023/08/09 10:08:12;;;;;;;4.57;1.40;;;;;;;23.79;58.01;101361.16;5016629;28;20507;-71
2023/08/09 10:10:40;;;;;;;1.48;0.82;;;;;;;23.74;57.43;101366.31;5013756;28;20053;-72
2023/08/09 10:13:07;;;;;;;5.53;1.02;;;;;;;23.90;59.39;101370.13;4997260;28;20065;-72
2023/08/09 10:15:41;;;;;;;1.75;0.80;;;;;;;23.60;60.56;101368.38;4996321;28;20046;-73
2023/08/09 10:18:11;;;;;;;1.75;0.88;;;;;;;23.65;59.47;101357.91;5010891;28;20029;-71
2023/08/09 10:20:50;;;;;;;2.40;0.90;;;;;;;23.46;58.59;101359.03;5010685;28;20134;-73
2023/08/09 10:23:24;;;;;;;2.08;1.17;;;;;;;23.39;59.06;101358.34;4996008;28;20477;-73
2023/08/09 10:25:51;;;;;;;3.72;1.30;;;;;;;23.34;59.44;101366.97;4997225;28;20049;-72
2023/08/09 10:28:17;;;;;;;5.25;1.20;;;;;;;23.51;60.39;101356.53;5016992;28;20046;-73
2023/08/09 10:30:46;;;;;;;2.67;1.40;;;;;;;23.48;55.87;101360.41;5016021;28;20053;-72
2023/08/09 10:33:18;;;;;;;4.13;1.27;;;;;;;23.50;53.96;101355.69;5019871;28;20048;-72
2023/08/09 10:35:52;;;;;;;1.45;1.02;;;;;;;23.12;60.44;101356.09;5013451;28;20496;-72
2023/08/09 10:38:39;;;;;;;3.97;1.08;;;;;;;23.15;58.17;101360.94;5013434;28;20102;-72
2023/08/09 10:41:09;;;;;;;3.13;0.80;;;;;;;23.09;57.71;101365.31;5011952;28;20124;-72
2023/08/09 10:43:34;;;;;;;2.80;1.08;;;;;;;23.12;57.45;101364.84;5015680;28;20481;-71
2023/08/09 10:46:17;;;;;;;1.83;0.90;;;;;;;22.94;54.47;101360.41;5013035;28;20037;-73
2023/08/09 10:48:54;;;;;;;1.95;0.80;;;;;;;22.95;54.03;101358.56;5017886;28;20048;-73
2023/08/09 10:51:21;;;;;;;2.28;1.00;;;;;;;22.81;57.49;101367.69;5021016;28;20040;-72
2023/08/09 10:53:58;;;;;;;2.78;0.70;;;;;;;22.96;54.26;101372.56;5020932;28;20056;-72
2023/08/09 10:56:37;;;;;;;4.68;0.85;;;;;;;23.19;54.21;101366.56;5016897;28;20373;-72
2023/08/09 10:59:13;;;;;;;3.15;1.05;;;;;;;23.21;56.01;101372.47;5015898;28;20041;-71
2023/08/09 11:01:40;;;;;;;2.75;1.00;;;;;;;23.39;50.38;101366.28;5005017;28;20038;-71
2023/08/09 11:04:12;;;;;;;5.32;0.93;;;;;;;23.28;55.73;101365.22;4995489;28;20044;-71
2023/08/09 11:06:40;;;;;;;3.30;1.00;;;;;;;23.28;52.28;101371.31;5010335;28;20025;-72
2023/08/09 11:09:08;;;;;;;2.47;0.95;;;;;;;23.41;55.18;101369.50;5019190;28;20029;-72
2023/08/09 11:11:34;;;;;;;1.75;0.93;;;;;;;23.30;54.18;101373.72;5002690;28;20046;-71
2023/08/09 11:14:04;;;;;;;2.25;1.00;;;;;;;23.44;52.24;101372.50;5001884;28;20052;-73
2023/08/09 11:16:30;;;;;;;0.80;0.70;;;;;;;23.49;56.42;101377.13;5009687;28;20054;-72
2023/08/09 11:19:01;;;;;;;2.88;1.00;;;;;;;23.31;54.77;101375.34;5014150;28;20394;-71
2023/08/09 11:21:27;;;;;;;2.45;1.08;;;;;;;23.37;54.61;101369.13;5001507;28;20049;-70
2023/08/09 11:23:57;;;;;;;2.10;1.00;;;;;;;23.41;54.43;101378.22;4996453;28;20431;-72